sensor_id;sensor_type;location;lat;lon;timestamp;noise_LAeq;noise_LA_min;noise_LA_max;noise_LA01;noise_LA95
18377;Laerm;9315;52.624;13.544;2023-03-01T00:01:46;59.46;36.39;77.52;;
18377;Laerm;9315;52.624;13.544;2023-03-01T00:04:13;38.55;33.72;50.09;;
18377;Laerm;9315;52.624;13.544;2023-03-01T00:06:44;39.99;32.90;49.31;;
18377;Laerm;9315;52.624;13.544;2023-03-01T00:09:15;41.56;32.39;49.14;;
18377;Laerm;9315;52.624;13.544;2023-03-01T00:11:47;58.81;37.49;76.18;;
18377;Laerm;9315;52.624;13.544;2023-03-01T00:14:15;40.98;35.81;48.95;;
18377;Laerm;9315;52.624;13.544;2023-03-01T00:16:46;55.69;34.50;73.01;;
18377;Laerm;9315;52.624;13.544;2023-03-01T00:19:19;43.44;36.79;49.82;;
18377;Laerm;9315;52.624;13.544;2023-03-01T00:21:47;45.37;35.01;57.49;;
18377;Laerm;9315;52.624;13.544;2023-03-01T00:24:16;55.18;31.13;73.55;;
18377;Laerm;9315;52.624;13.544;2023-03-01T00:26:44;61.35;33.21;82.21;;
18377;Laerm;9315;52.624;13.544;2023-03-01T00:29:12;61.73;36.01;77.65;;
18377;Laerm;9315;52.624;13.544;2023-03-01T00:31:40;62.02;38.40;78.60;;
18377;Laerm;9315;52.624;13.544;2023-03-01T00:34:09;42.48;36.37;51.14;;
18377;Laerm;9315;52.624;13.544;2023-03-01T00:36:37;41.73;35.52;48.98;;
18377;Laerm;9315;52.624;13.544;2023-03-01T00:39:13;42.87;37.50;48.67;;
18377;Laerm;9315;52.624;13.544;2023-03-01T00:41:42;61.61;36.83;79.24;;
18377;Laerm;9315;52.624;13.544;2023-03-01T00:44:10;39.75;34.66;50.04;;
18377;Laerm;9315;52.624;13.544;2023-03-01T00:46:39;39.98;34.44;47.92;;
18377;Laerm;9315;52.624;13.544;2023-03-01T00:49:07;39.76;33.87;49.10;;
18377;Laerm;9315;52.624;13.544;2023-03-01T00:51:35;58.51;34.91;74.99;;
18377;Laerm;9315;52.624;13.544;2023-03-01T00:54:03;56.84;35.92;76.86;;
18377;Laerm;9315;52.624;13.544;2023-03-01T00:56:31;39.52;33.39;49.57;;
18377;Laerm;9315;52.624;13.544;2023-03-01T00:59:00;37.53;32.07;45.02;;
18377;Laerm;9315;52.624;13.544;2023-03-01T01:01:30;60.74;34.43;78.72;;
18377;Laerm;9315;52.624;13.544;2023-03-01T01:04:17;35.58;31.24;40.81;;
18377;Laerm;9315;52.624;13.544;2023-03-01T01:06:46;58.82;31.27;76.07;;
18377;Laerm;9315;52.624;13.544;2023-03-01T01:09:17;38.10;31.74;45.85;;
18377;Laerm;9315;52.624;13.544;2023-03-01T01:11:51;55.77;31.66;76.16;;
18377;Laerm;9315;52.624;13.544;2023-03-01T01:14:19;55.79;30.54;74.10;;
18377;Laerm;9315;52.624;13.544;2023-03-01T01:16:48;53.44;33.09;70.30;;
18377;Laerm;9315;52.624;13.544;2023-03-01T01:19:16;44.97;32.84;55.45;;
18377;Laerm;9315;52.624;13.544;2023-03-01T01:21:44;60.94;33.40;80.14;;
18377;Laerm;9315;52.624;13.544;2023-03-01T01:24:12;58.82;34.13;77.56;;
18377;Laerm;9315;52.624;13.544;2023-03-01T01:26:41;62.32;34.25;79.50;;
18377;Laerm;9315;52.624;13.544;2023-03-01T01:29:10;37.63;33.75;43.95;;
18377;Laerm;9315;52.624;13.544;2023-03-01T01:31:41;56.33;33.31;73.72;;
18377;Laerm;9315;52.624;13.544;2023-03-01T01:34:17;62.13;35.55;78.29;;
18377;Laerm;9315;52.624;13.544;2023-03-01T01:36:52;58.99;35.62;77.60;;
18377;Laerm;9315;52.624;13.544;2023-03-01T01:39:24;40.63;32.80;49.37;;
18377;Laerm;9315;52.624;13.544;2023-03-01T01:41:51;35.42;30.91;42.79;;
18377;Laerm;9315;52.624;13.544;2023-03-01T01:44:28;54.25;33.96;74.20;;
18377;Laerm;9315;52.624;13.544;2023-03-01T01:47:12;56.57;34.62;73.58;;
18377;Laerm;9315;52.624;13.544;2023-03-01T01:49:53;41.32;32.76;48.79;;
18377;Laerm;9315;52.624;13.544;2023-03-01T01:52:35;36.89;31.05;47.79;;
18377;Laerm;9315;52.624;13.544;2023-03-01T01:55:11;60.10;31.47;79.50;;
18377;Laerm;9315;52.624;13.544;2023-03-01T01:57:47;41.74;34.86;56.84;;
18377;Laerm;9315;52.624;13.544;2023-03-01T02:00:24;60.30;33.24;79.94;;
18377;Laerm;9315;52.624;13.544;2023-03-01T02:03:13;60.58;33.77;77.32;;
18377;Laerm;9315;52.624;13.544;2023-03-01T02:08:49;39.11;34.42;46.46;;
18377;Laerm;9315;52.624;13.544;2023-03-01T02:11:20;58.52;34.67;73.18;;
18377;Laerm;9315;52.624;13.544;2023-03-01T02:13:48;58.53;35.19;73.36;;
18377;Laerm;9315;52.624;13.544;2023-03-01T02:16:20;60.53;33.17;76.70;;
18377;Laerm;9315;52.624;13.544;2023-03-01T02:18:48;57.45;35.03;75.46;;
18377;Laerm;9315;52.624;13.544;2023-03-01T02:30:22;60.55;39.03;74.37;;
18377;Laerm;9315;52.624;13.544;2023-03-01T02:32:55;58.34;38.77;72.54;;
18377;Laerm;9315;52.624;13.544;2023-03-01T02:35:38;60.21;38.47;73.29;;
18377;Laerm;9315;52.624;13.544;2023-03-01T02:38:08;58.55;38.08;73.15;;
18377;Laerm;9315;52.624;13.544;2023-03-01T02:40:38;57.15;36.86;74.79;;
18377;Laerm;9315;52.624;13.544;2023-03-01T02:43:09;61.38;37.31;80.27;;
18377;Laerm;9315;52.624;13.544;2023-03-01T02:45:38;42.39;34.66;52.34;;
18377;Laerm;9315;52.624;13.544;2023-03-01T02:48:10;60.58;37.46;76.42;;
18377;Laerm;9315;52.624;13.544;2023-03-01T02:53:54;42.64;36.68;47.63;;
18377;Laerm;9315;52.624;13.544;2023-03-01T02:56:26;58.17;36.74;75.85;;
18377;Laerm;9315;52.624;13.544;2023-03-01T02:58:54;64.01;38.73;79.44;;
18377;Laerm;9315;52.624;13.544;2023-03-01T03:01:22;53.66;37.32;72.11;;
18377;Laerm;9315;52.624;13.544;2023-03-01T03:03:50;62.58;38.76;74.68;;
18377;Laerm;9315;52.624;13.544;2023-03-01T03:06:18;61.36;39.44;78.09;;
18377;Laerm;9315;52.624;13.544;2023-03-01T03:08:46;57.73;38.46;75.27;;
18377;Laerm;9315;52.624;13.544;2023-03-01T03:11:14;62.06;38.19;77.77;;
18377;Laerm;9315;52.624;13.544;2023-03-01T03:13:41;54.35;36.96;70.45;;
18377;Laerm;9315;52.624;13.544;2023-03-01T03:16:16;62.85;41.00;80.32;;
18377;Laerm;9315;52.624;13.544;2023-03-01T03:18:44;63.59;42.76;77.13;;
18377;Laerm;9315;52.624;13.544;2023-03-01T03:21:13;63.67;42.42;77.47;;
18377;Laerm;9315;52.624;13.544;2023-03-01T03:23:41;56.60;41.53;74.99;;
18377;Laerm;9315;52.624;13.544;2023-03-01T03:26:11;60.37;42.03;75.17;;
18377;Laerm;9315;52.624;13.544;2023-03-01T03:28:41;61.69;42.94;73.87;;
18377;Laerm;9315;52.624;13.544;2023-03-01T03:31:09;66.14;43.98;80.43;;
18377;Laerm;9315;52.624;13.544;2023-03-01T03:33:37;64.31;43.73;76.22;;
18377;Laerm;9315;52.624;13.544;2023-03-01T03:36:05;66.78;44.76;79.04;;
18377;Laerm;9315;52.624;13.544;2023-03-01T03:38:34;61.23;42.25;73.37;;
18377;Laerm;9315;52.624;13.544;2023-03-01T03:41:07;65.89;46.59;81.82;;
18377;Laerm;9315;52.624;13.544;2023-03-01T03:43:38;67.02;47.33;79.40;;
18377;Laerm;9315;52.624;13.544;2023-03-01T03:46:07;66.87;47.45;78.57;;
18377;Laerm;9315;52.624;13.544;2023-03-01T03:48:44;63.11;43.92;75.78;;
18377;Laerm;9315;52.624;13.544;2023-03-01T03:51:18;63.20;43.28;75.79;;
18377;Laerm;9315;52.624;13.544;2023-03-01T03:53:46;65.26;43.87;78.81;;
18377;Laerm;9315;52.624;13.544;2023-03-01T03:56:14;64.35;42.81;75.40;;
18377;Laerm;9315;52.624;13.544;2023-03-01T03:58:42;67.54;43.07;80.01;;
18377;Laerm;9315;52.624;13.544;2023-03-01T04:01:10;63.55;43.33;79.33;;
18377;Laerm;9315;52.624;13.544;2023-03-01T04:03:38;63.23;42.68;76.88;;
18377;Laerm;9315;52.624;13.544;2023-03-01T04:06:06;65.06;42.63;78.64;;
18377;Laerm;9315;52.624;13.544;2023-03-01T04:08:34;67.50;44.14;78.12;;
18377;Laerm;9315;52.624;13.544;2023-03-01T04:11:04;67.86;44.91;80.65;;
18377;Laerm;9315;52.624;13.544;2023-03-01T04:13:54;67.78;46.86;78.09;;
18377;Laerm;9315;52.624;13.544;2023-03-01T04:16:23;68.60;49.12;79.77;;
18377;Laerm;9315;52.624;13.544;2023-03-01T04:18:51;68.99;48.95;77.65;;
18377;Laerm;9315;52.624;13.544;2023-03-01T04:21:24;69.08;49.06;77.13;;
18377;Laerm;9315;52.624;13.544;2023-03-01T04:23:52;67.26;47.22;77.20;;
18377;Laerm;9315;52.624;13.544;2023-03-01T04:26:20;68.88;45.22;81.49;;
18377;Laerm;9315;52.624;13.544;2023-03-01T04:28:48;68.18;48.19;78.31;;
18377;Laerm;9315;52.624;13.544;2023-03-01T04:31:19;68.50;47.43;78.97;;
18377;Laerm;9315;52.624;13.544;2023-03-01T04:33:54;68.10;49.17;81.58;;
18377;Laerm;9315;52.624;13.544;2023-03-01T04:36:27;66.74;48.69;77.22;;
18377;Laerm;9315;52.624;13.544;2023-03-01T04:38:56;69.34;49.99;79.18;;
18377;Laerm;9315;52.624;13.544;2023-03-01T04:41:25;68.32;50.13;78.10;;
18377;Laerm;9315;52.624;13.544;2023-03-01T04:43:53;68.41;50.44;76.97;;
18377;Laerm;9315;52.624;13.544;2023-03-01T04:46:22;68.76;47.68;80.57;;
18377;Laerm;9315;52.624;13.544;2023-03-01T04:48:50;69.23;49.20;79.05;;
18377;Laerm;9315;52.624;13.544;2023-03-01T04:51:18;67.67;49.81;77.78;;
18377;Laerm;9315;52.624;13.544;2023-03-01T04:53:46;68.92;48.48;78.42;;
18377;Laerm;9315;52.624;13.544;2023-03-01T04:56:16;68.75;50.33;77.62;;
18377;Laerm;9315;52.624;13.544;2023-03-01T04:58:46;68.16;50.28;77.77;;
18377;Laerm;9315;52.624;13.544;2023-03-01T05:01:20;69.85;49.34;77.80;;
18377;Laerm;9315;52.624;13.544;2023-03-01T05:03:51;70.18;52.07;77.56;;
18377;Laerm;9315;52.624;13.544;2023-03-01T05:06:20;67.44;50.07;78.30;;
18377;Laerm;9315;52.624;13.544;2023-03-01T05:08:49;71.18;49.87;80.57;;
18377;Laerm;9315;52.624;13.544;2023-03-01T05:11:17;70.81;49.61;83.90;;
18377;Laerm;9315;52.624;13.544;2023-03-01T05:13:45;71.38;50.41;78.50;;
18377;Laerm;9315;52.624;13.544;2023-03-01T05:16:13;70.12;53.74;80.72;;
18377;Laerm;9315;52.624;13.544;2023-03-01T05:18:44;70.56;51.96;79.21;;
18377;Laerm;9315;52.624;13.544;2023-03-01T05:21:14;70.15;51.21;81.56;;
18377;Laerm;9315;52.624;13.544;2023-03-01T05:23:45;71.06;51.83;80.52;;
18377;Laerm;9315;52.624;13.544;2023-03-01T05:26:19;70.73;49.76;79.41;;
18377;Laerm;9315;52.624;13.544;2023-03-01T05:28:56;69.15;51.11;80.05;;
18377;Laerm;9315;52.624;13.544;2023-03-01T05:31:28;72.30;52.16;84.26;;
18377;Laerm;9315;52.624;13.544;2023-03-01T05:33:58;71.48;54.51;81.17;;
18377;Laerm;9315;52.624;13.544;2023-03-01T05:36:27;68.83;52.27;78.65;;
18377;Laerm;9315;52.624;13.544;2023-03-01T05:38:55;71.84;50.84;81.90;;
18377;Laerm;9315;52.624;13.544;2023-03-01T05:41:23;70.39;51.28;88.12;;
18377;Laerm;9315;52.624;13.544;2023-03-01T05:43:51;72.88;55.02;81.60;;
18377;Laerm;9315;52.624;13.544;2023-03-01T05:46:19;69.05;50.85;81.41;;
18377;Laerm;9315;52.624;13.544;2023-03-01T05:48:47;72.39;51.67;86.52;;
18377;Laerm;9315;52.624;13.544;2023-03-01T05:51:16;69.69;50.88;78.25;;
18377;Laerm;9315;52.624;13.544;2023-03-01T05:53:45;71.07;49.71;79.07;;
18377;Laerm;9315;52.624;13.544;2023-03-01T05:56:13;70.40;50.72;78.41;;
18377;Laerm;9315;52.624;13.544;2023-03-01T05:58:41;69.88;51.47;81.39;;
18377;Laerm;9315;52.624;13.544;2023-03-01T06:01:12;70.45;51.93;83.33;;
18377;Laerm;9315;52.624;13.544;2023-03-01T06:03:44;71.82;52.46;78.81;;
18377;Laerm;9315;52.624;13.544;2023-03-01T06:06:12;71.54;54.49;79.37;;
18377;Laerm;9315;52.624;13.544;2023-03-01T06:08:40;71.73;53.49;79.45;;
18377;Laerm;9315;52.624;13.544;2023-03-01T06:11:09;69.21;51.09;78.09;;
18377;Laerm;9315;52.624;13.544;2023-03-01T06:13:37;72.65;55.46;79.63;;
18377;Laerm;9315;52.624;13.544;2023-03-01T06:16:06;72.05;52.80;87.10;;
18377;Laerm;9315;52.624;13.544;2023-03-01T06:18:36;70.98;52.39;80.71;;
18377;Laerm;9315;52.624;13.544;2023-03-01T06:21:07;72.06;54.65;81.00;;
18377;Laerm;9315;52.624;13.544;2023-03-01T06:23:35;71.00;52.89;80.42;;
18377;Laerm;9315;52.624;13.544;2023-03-01T06:26:08;72.29;54.01;80.70;;
18377;Laerm;9315;52.624;13.544;2023-03-01T06:28:36;71.78;53.26;80.89;;
18377;Laerm;9315;52.624;13.544;2023-03-01T06:31:05;70.86;52.34;78.73;;
18377;Laerm;9315;52.624;13.544;2023-03-01T06:33:36;70.03;52.20;78.31;;
18377;Laerm;9315;52.624;13.544;2023-03-01T06:36:05;71.17;53.74;80.09;;
18377;Laerm;9315;52.624;13.544;2023-03-01T06:38:33;71.07;53.90;83.26;;
18377;Laerm;9315;52.624;13.544;2023-03-01T06:41:01;69.90;51.93;79.33;;
18377;Laerm;9315;52.624;13.544;2023-03-01T06:43:29;71.53;51.81;79.89;;
18377;Laerm;9315;52.624;13.544;2023-03-01T06:45:57;72.04;52.67;80.59;;
18377;Laerm;9315;52.624;13.544;2023-03-01T06:48:25;71.62;52.25;80.33;;
18377;Laerm;9315;52.624;13.544;2023-03-01T06:50:54;70.75;49.90;81.06;;
18377;Laerm;9315;52.624;13.544;2023-03-01T06:53:25;70.33;51.77;88.52;;
18377;Laerm;9315;52.624;13.544;2023-03-01T06:55:58;71.73;49.82;82.33;;
18377;Laerm;9315;52.624;13.544;2023-03-01T06:58:27;71.95;52.11;85.01;;
18377;Laerm;9315;52.624;13.544;2023-03-01T07:00:55;70.87;53.01;80.07;;
18377;Laerm;9315;52.624;13.544;2023-03-01T07:03:23;72.59;50.59;87.97;;
18377;Laerm;9315;52.624;13.544;2023-03-01T07:05:54;70.69;51.85;78.77;;
18377;Laerm;9315;52.624;13.544;2023-03-01T07:08:22;70.94;51.92;79.42;;
18377;Laerm;9315;52.624;13.544;2023-03-01T07:10:58;70.21;52.11;89.88;;
18377;Laerm;9315;52.624;13.544;2023-03-01T07:13:27;70.48;51.38;78.65;;
18377;Laerm;9315;52.624;13.544;2023-03-01T07:15:55;71.31;51.79;81.26;;
18377;Laerm;9315;52.624;13.544;2023-03-01T07:18:24;69.01;48.70;77.11;;
18377;Laerm;9315;52.624;13.544;2023-03-01T07:20:52;70.28;50.74;79.63;;
18377;Laerm;9315;52.624;13.544;2023-03-01T07:23:20;69.01;49.55;79.66;;
18377;Laerm;9315;52.624;13.544;2023-03-01T07:25:56;72.25;51.12;80.15;;
18377;Laerm;9315;52.624;13.544;2023-03-01T07:28:24;70.53;47.45;79.10;;
18377;Laerm;9315;52.624;13.544;2023-03-01T07:30:53;70.65;48.18;78.85;;
18377;Laerm;9315;52.624;13.544;2023-03-01T07:33:21;69.67;48.15;80.42;;
18377;Laerm;9315;52.624;13.544;2023-03-01T07:36:02;70.90;49.88;81.20;;
18377;Laerm;9315;52.624;13.544;2023-03-01T07:38:31;68.88;48.69;79.49;;
18377;Laerm;9315;52.624;13.544;2023-03-01T07:41:03;69.96;45.26;85.09;;
18377;Laerm;9315;52.624;13.544;2023-03-01T07:43:31;70.31;48.27;80.46;;
18377;Laerm;9315;52.624;13.544;2023-03-01T07:46:01;68.44;46.66;79.09;;
18377;Laerm;9315;52.624;13.544;2023-03-01T07:48:31;69.04;46.40;78.81;;
18377;Laerm;9315;52.624;13.544;2023-03-01T07:51:05;70.24;48.15;79.60;;
18377;Laerm;9315;52.624;13.544;2023-03-01T07:53:34;70.10;46.95;80.94;;
18377;Laerm;9315;52.624;13.544;2023-03-01T07:56:10;71.14;43.22;81.26;;
18377;Laerm;9315;52.624;13.544;2023-03-01T07:58:42;70.46;43.01;80.31;;
18377;Laerm;9315;52.624;13.544;2023-03-01T08:01:15;69.73;47.42;81.80;;
18377;Laerm;9315;52.624;13.544;2023-03-01T08:03:44;70.30;42.28;80.10;;
18377;Laerm;9315;52.624;13.544;2023-03-01T08:06:16;68.23;46.42;78.82;;
18377;Laerm;9315;52.624;13.544;2023-03-01T08:08:45;69.60;46.31;79.08;;
18377;Laerm;9315;52.624;13.544;2023-03-01T08:11:15;69.94;45.65;79.81;;
18377;Laerm;9315;52.624;13.544;2023-03-01T08:13:44;70.07;43.01;79.58;;
18377;Laerm;9315;52.624;13.544;2023-03-01T08:16:15;68.61;41.72;77.41;;
18377;Laerm;9315;52.624;13.544;2023-03-01T08:18:43;70.24;48.35;82.23;;
18377;Laerm;9315;52.624;13.544;2023-03-01T08:21:16;69.93;42.77;78.52;;
18377;Laerm;9315;52.624;13.544;2023-03-01T08:23:44;70.02;42.04;81.23;;
18377;Laerm;9315;52.624;13.544;2023-03-01T08:26:18;69.37;39.54;79.28;;
18377;Laerm;9315;52.624;13.544;2023-03-01T08:28:48;69.28;38.83;79.95;;
18377;Laerm;9315;52.624;13.544;2023-03-01T08:31:37;68.42;42.87;79.04;;
18377;Laerm;9315;52.624;13.544;2023-03-01T08:34:12;68.15;37.37;78.05;;
18377;Laerm;9315;52.624;13.544;2023-03-01T08:36:45;68.85;39.91;79.06;;
18377;Laerm;9315;52.624;13.544;2023-03-01T08:39:16;69.07;43.11;77.42;;
18377;Laerm;9315;52.624;13.544;2023-03-01T08:41:46;69.48;39.70;79.44;;
18377;Laerm;9315;52.624;13.544;2023-03-01T08:44:16;69.75;48.26;78.52;;
18377;Laerm;9315;52.624;13.544;2023-03-01T08:46:50;70.54;46.31;80.21;;
18377;Laerm;9315;52.624;13.544;2023-03-01T08:49:20;67.96;41.14;76.18;;
18377;Laerm;9315;52.624;13.544;2023-03-01T08:51:53;71.39;49.37;82.25;;
18377;Laerm;9315;52.624;13.544;2023-03-01T08:54:22;69.06;43.30;80.64;;
18377;Laerm;9315;52.624;13.544;2023-03-01T08:56:50;69.62;43.58;82.61;;
18377;Laerm;9315;52.624;13.544;2023-03-01T08:59:21;70.62;43.83;79.63;;
18377;Laerm;9315;52.624;13.544;2023-03-01T09:01:48;70.22;43.61;78.61;;
18377;Laerm;9315;52.624;13.544;2023-03-01T09:04:17;67.94;42.38;78.08;;
18377;Laerm;9315;52.624;13.544;2023-03-01T09:06:44;68.62;37.64;81.38;;
18377;Laerm;9315;52.624;13.544;2023-03-01T09:09:16;69.73;42.92;80.15;;
18377;Laerm;9315;52.624;13.544;2023-03-01T09:11:46;69.48;52.31;77.58;;
18377;Laerm;9315;52.624;13.544;2023-03-01T09:14:15;70.01;39.35;81.30;;
18377;Laerm;9315;52.624;13.544;2023-03-01T09:16:43;70.25;38.22;83.45;;
18377;Laerm;9315;52.624;13.544;2023-03-01T09:19:11;67.47;39.53;78.11;;
18377;Laerm;9315;52.624;13.544;2023-03-01T09:21:40;71.00;45.55;81.08;;
18377;Laerm;9315;52.624;13.544;2023-03-01T09:24:15;70.72;40.33;80.67;;
18377;Laerm;9315;52.624;13.544;2023-03-01T09:26:43;68.98;38.04;78.88;;
18377;Laerm;9315;52.624;13.544;2023-03-01T09:29:16;69.04;46.29;78.37;;
18377;Laerm;9315;52.624;13.544;2023-03-01T09:31:45;69.53;40.26;80.32;;
18377;Laerm;9315;52.624;13.544;2023-03-01T09:34:13;69.54;44.07;81.14;;
18377;Laerm;9315;52.624;13.544;2023-03-01T09:36:47;68.53;38.08;78.16;;
18377;Laerm;9315;52.624;13.544;2023-03-01T09:39:14;68.40;43.46;79.69;;
18377;Laerm;9315;52.624;13.544;2023-03-01T09:41:59;70.06;51.41;81.65;;
18377;Laerm;9315;52.624;13.544;2023-03-01T09:44:56;69.05;43.41;78.63;;
18377;Laerm;9315;52.624;13.544;2023-03-01T09:47:30;68.73;48.77;78.64;;
18377;Laerm;9315;52.624;13.544;2023-03-01T09:50:20;67.57;46.32;77.33;;
18377;Laerm;9315;52.624;13.544;2023-03-01T09:53:11;69.62;43.33;77.44;;
18377;Laerm;9315;52.624;13.544;2023-03-01T10:05:05;68.88;46.04;80.31;;
18377;Laerm;9315;52.624;13.544;2023-03-01T10:10:47;69.79;45.67;78.73;;
18377;Laerm;9315;52.624;13.544;2023-03-01T10:13:33;69.41;46.72;85.40;;
18377;Laerm;9315;52.624;13.544;2023-03-01T10:16:21;67.50;38.77;78.31;;
18377;Laerm;9315;52.624;13.544;2023-03-01T10:19:00;69.07;44.62;80.16;;
18377;Laerm;9315;52.624;13.544;2023-03-01T10:21:30;70.27;44.38;80.75;;
18377;Laerm;9315;52.624;13.544;2023-03-01T10:24:18;67.70;39.13;77.89;;
18377;Laerm;9315;52.624;13.544;2023-03-01T10:27:01;70.33;46.10;81.16;;
18377;Laerm;9315;52.624;13.544;2023-03-01T10:32:19;69.05;39.94;79.59;;
18377;Laerm;9315;52.624;13.544;2023-03-01T10:34:52;66.52;37.92;77.12;;
18377;Laerm;9315;52.624;13.544;2023-03-01T10:37:21;69.27;44.32;79.42;;
18377;Laerm;9315;52.624;13.544;2023-03-01T10:40:07;67.94;37.65;77.98;;
18377;Laerm;9315;52.624;13.544;2023-03-01T10:42:46;69.57;42.66;81.05;;
18377;Laerm;9315;52.624;13.544;2023-03-01T10:45:40;69.44;43.57;91.20;;
18377;Laerm;9315;52.624;13.544;2023-03-01T10:50:48;69.27;40.71;80.43;;
18377;Laerm;9315;52.624;13.544;2023-03-01T10:53:41;69.34;40.62;77.62;;
18377;Laerm;9315;52.624;13.544;2023-03-01T10:56:14;67.67;37.22;77.13;;
18377;Laerm;9315;52.624;13.544;2023-03-01T10:59:04;68.26;36.39;80.43;;
18377;Laerm;9315;52.624;13.544;2023-03-01T11:01:35;67.72;42.76;76.87;;
18377;Laerm;9315;52.624;13.544;2023-03-01T11:04:10;69.49;39.86;79.79;;
18377;Laerm;9315;52.624;13.544;2023-03-01T11:06:41;67.65;41.20;76.57;;
18377;Laerm;9315;52.624;13.544;2023-03-01T11:09:24;68.05;39.83;78.89;;
18377;Laerm;9315;52.624;13.544;2023-03-01T11:11:58;71.11;45.18;82.93;;
18377;Laerm;9315;52.624;13.544;2023-03-01T11:14:40;68.47;41.79;78.37;;
18377;Laerm;9315;52.624;13.544;2023-03-01T11:17:27;68.36;44.49;76.70;;
18377;Laerm;9315;52.624;13.544;2023-03-01T11:20:34;69.42;47.17;78.58;;
18377;Laerm;9315;52.624;13.544;2023-03-01T11:23:13;67.30;40.41;76.86;;
18377;Laerm;9315;52.624;13.544;2023-03-01T11:26:04;69.42;46.26;77.58;;
18377;Laerm;9315;52.624;13.544;2023-03-01T11:28:37;69.06;41.88;80.12;;
18377;Laerm;9315;52.624;13.544;2023-03-01T11:31:10;68.40;45.06;79.36;;
18377;Laerm;9315;52.624;13.544;2023-03-01T11:34:16;70.53;47.38;84.21;;
18377;Laerm;9315;52.624;13.544;2023-03-01T11:36:58;69.74;45.26;80.87;;
18377;Laerm;9315;52.624;13.544;2023-03-01T11:40:23;70.38;45.35;79.73;;
18377;Laerm;9315;52.624;13.544;2023-03-01T12:01:51;70.53;41.59;82.03;;
18377;Laerm;9315;52.624;13.544;2023-03-01T12:08:24;69.25;45.90;77.46;;
18377;Laerm;9315;52.624;13.544;2023-03-01T12:15:18;68.99;39.41;83.90;;
18377;Laerm;9315;52.624;13.544;2023-03-01T12:28:14;69.15;35.66;78.69;;
18377;Laerm;9315;52.624;13.544;2023-03-01T12:34:35;67.77;38.02;78.47;;
18377;Laerm;9315;52.624;13.544;2023-03-01T12:40:35;67.45;35.74;77.63;;
18377;Laerm;9315;52.624;13.544;2023-03-01T12:43:36;70.42;42.99;79.77;;
18377;Laerm;9315;52.624;13.544;2023-03-01T12:49:31;68.45;49.48;77.28;;
18377;Laerm;9315;52.624;13.544;2023-03-01T12:54:53;68.53;50.15;78.00;;
18377;Laerm;9315;52.624;13.544;2023-03-01T12:57:42;70.32;44.70;82.58;;
18377;Laerm;9315;52.624;13.544;2023-03-01T13:01:22;68.20;41.83;77.60;;
18377;Laerm;9315;52.624;13.544;2023-03-01T13:11:22;68.85;45.25;79.56;;
18377;Laerm;9315;52.624;13.544;2023-03-01T13:13:51;67.03;39.67;76.76;;
18377;Laerm;9315;52.624;13.544;2023-03-01T13:16:41;69.37;38.87;84.25;;
18377;Laerm;9315;52.624;13.544;2023-03-01T13:19:28;70.10;38.38;91.16;;
18377;Laerm;9315;52.624;13.544;2023-03-01T13:22:32;68.51;41.62;79.07;;
18377;Laerm;9315;52.624;13.544;2023-03-01T13:25:19;70.78;46.58;83.97;;
18377;Laerm;9315;52.624;13.544;2023-03-01T13:27:50;70.63;51.62;76.92;;
18377;Laerm;9315;52.624;13.544;2023-03-01T13:35:59;68.82;46.60;79.86;;
18377;Laerm;9315;52.624;13.544;2023-03-01T13:39:01;70.47;47.35;80.25;;
18377;Laerm;9315;52.624;13.544;2023-03-01T13:50:02;70.23;47.44;79.51;;
18377;Laerm;9315;52.624;13.544;2023-03-01T13:52:55;68.59;44.02;78.90;;
18377;Laerm;9315;52.624;13.544;2023-03-01T13:55:44;68.34;45.03;77.64;;
18377;Laerm;9315;52.624;13.544;2023-03-01T13:58:33;69.05;47.14;77.58;;
18377;Laerm;9315;52.624;13.544;2023-03-01T14:01:07;68.27;38.67;78.19;;
18377;Laerm;9315;52.624;13.544;2023-03-01T14:03:42;68.70;43.34;77.79;;
18377;Laerm;9315;52.624;13.544;2023-03-01T14:06:24;69.25;39.79;79.99;;
18377;Laerm;9315;52.624;13.544;2023-03-01T14:09:31;69.27;38.16;80.25;;
18377;Laerm;9315;52.624;13.544;2023-03-01T14:15:29;69.58;45.48;79.04;;
18377;Laerm;9315;52.624;13.544;2023-03-01T14:18:52;69.70;41.77;77.90;;
18377;Laerm;9315;52.624;13.544;2023-03-01T14:21:23;69.01;43.20;76.06;;
18377;Laerm;9315;52.624;13.544;2023-03-01T14:23:53;70.47;46.06;80.07;;
18377;Laerm;9315;52.624;13.544;2023-03-01T14:26:22;68.51;39.20;76.83;;
18377;Laerm;9315;52.624;13.544;2023-03-01T14:28:51;68.95;52.13;76.86;;
18377;Laerm;9315;52.624;13.544;2023-03-01T14:31:39;70.59;47.16;80.67;;
18377;Laerm;9315;52.624;13.544;2023-03-01T14:34:24;70.45;48.95;80.02;;
18377;Laerm;9315;52.624;13.544;2023-03-01T14:36:55;70.90;41.69;86.57;;
18377;Laerm;9315;52.624;13.544;2023-03-01T14:39:32;69.86;49.40;77.72;;
18377;Laerm;9315;52.624;13.544;2023-03-01T14:42:05;70.60;42.85;81.16;;
18377;Laerm;9315;52.624;13.544;2023-03-01T14:44:48;69.08;44.48;75.74;;
18377;Laerm;9315;52.624;13.544;2023-03-01T14:47:37;69.53;43.28;77.32;;
18377;Laerm;9315;52.624;13.544;2023-03-01T14:50:32;70.26;51.56;81.29;;
18377;Laerm;9315;52.624;13.544;2023-03-01T14:53:23;69.67;44.21;84.40;;
18377;Laerm;9315;52.624;13.544;2023-03-01T14:55:59;70.62;42.81;79.64;;
18377;Laerm;9315;52.624;13.544;2023-03-01T14:58:33;69.39;43.54;77.62;;
18377;Laerm;9315;52.624;13.544;2023-03-01T15:01:10;69.60;46.07;78.70;;
18377;Laerm;9315;52.624;13.544;2023-03-01T15:03:57;68.98;43.11;76.52;;
18377;Laerm;9315;52.624;13.544;2023-03-01T15:06:30;69.69;51.91;77.21;;
18377;Laerm;9315;52.624;13.544;2023-03-01T15:09:00;70.69;49.97;79.09;;
18377;Laerm;9315;52.624;13.544;2023-03-01T15:11:32;70.46;46.18;79.26;;
18377;Laerm;9315;52.624;13.544;2023-03-01T15:14:01;70.39;47.20;82.87;;
18377;Laerm;9315;52.624;13.544;2023-03-01T15:16:52;68.49;43.06;76.66;;
18377;Laerm;9315;52.624;13.544;2023-03-01T15:19:34;69.49;45.17;79.46;;
18377;Laerm;9315;52.624;13.544;2023-03-01T15:22:18;69.51;40.46;77.81;;
18377;Laerm;9315;52.624;13.544;2023-03-01T15:25:14;70.29;45.37;78.55;;
18377;Laerm;9315;52.624;13.544;2023-03-01T15:27:53;69.34;45.21;79.34;;
18377;Laerm;9315;52.624;13.544;2023-03-01T15:31:04;69.55;43.08;77.15;;
18377;Laerm;9315;52.624;13.544;2023-03-01T15:34:28;70.35;45.09;79.97;;
18377;Laerm;9315;52.624;13.544;2023-03-01T15:37:00;70.64;47.48;93.07;;
18377;Laerm;9315;52.624;13.544;2023-03-01T15:45:30;70.22;44.29;79.93;;
18377;Laerm;9315;52.624;13.544;2023-03-01T15:48:15;69.51;49.41;76.33;;
18377;Laerm;9315;52.624;13.544;2023-03-01T15:50:58;69.74;50.64;79.20;;
18377;Laerm;9315;52.624;13.544;2023-03-01T15:53:28;69.30;47.72;77.70;;
18377;Laerm;9315;52.624;13.544;2023-03-01T15:55:57;72.24;45.71;89.49;;
18377;Laerm;9315;52.624;13.544;2023-03-01T15:58:25;69.23;45.77;81.07;;
18377;Laerm;9315;52.624;13.544;2023-03-01T16:00:54;68.64;39.89;78.76;;
18377;Laerm;9315;52.624;13.544;2023-03-01T16:03:29;70.45;42.38;78.44;;
18377;Laerm;9315;52.624;13.544;2023-03-01T16:05:57;67.76;48.91;77.58;;
18377;Laerm;9315;52.624;13.544;2023-03-01T16:08:25;70.29;45.66;77.98;;
18377;Laerm;9315;52.624;13.544;2023-03-01T16:10:53;67.40;44.63;83.42;;
18377;Laerm;9315;52.624;13.544;2023-03-01T16:13:22;74.52;40.93;97.71;;
18377;Laerm;9315;52.624;13.544;2023-03-01T16:15:50;69.93;51.30;78.35;;
18377;Laerm;9315;52.624;13.544;2023-03-01T16:18:19;67.91;39.06;77.09;;